Time;durP1;ratioP1;P1;durP2;ratioP2;P2;SDS_P1;SDS_P2;PMS_P1;PMS_P2;Temp;Humidity;BMP_temperature;BMP_pressure;BME280_temperature;BME280_humidity;BME280_pressure;Samples;Min_cycle;Max_cycle;Signal;HPM_P1;HPM_P2
2023/01/22 00:01:33;;;;;;;;;39.75;36.50;;;;;4.70;94.55;102720.53;5101929;27;45460;-82
2023/01/22 00:03:59;;;;;;;;;45.50;36.50;;;;;4.66;94.70;102717.25;5084464;27;47175;-82
2023/01/22 00:06:24;;;;;;;;;41.25;37.75;;;;;4.65;94.33;102718.19;5102025;27;45315;-82
2023/01/22 00:08:50;;;;;;;;;25.50;21.25;;;;;4.69;94.54;102718.84;5102231;27;45489;-83
2023/01/22 00:11:17;;;;;;;;;36.25;32.25;;;;;4.63;93.54;102716.56;5084079;27;46167;-81
2023/01/22 00:13:43;;;;;;;;;41.50;32.25;;;;;4.62;93.35;102709.59;5083157;27;47239;-84
2023/01/22 00:16:11;;;;;;;;;39.50;33.25;;;;;4.61;93.77;102716.63;5083656;27;45781;-85
2023/01/22 00:18:37;;;;;;;;;31.00;30.75;;;;;4.51;93.85;102708.41;5083193;27;45311;-82
2023/01/22 00:21:02;;;;;;;;;35.50;33.50;;;;;4.56;93.54;102723.97;5083447;27;47079;-81
2023/01/22 00:23:27;;;;;;;;;37.25;36.75;;;;;4.51;94.13;102704.91;5083410;27;48374;-82
2023/01/22 00:26:03;;;;;;;;;43.25;35.50;;;;;4.59;94.30;102715.03;5102242;27;45424;-83
2023/01/22 00:28:30;;;;;;;;;39.00;38.00;;;;;4.56;93.62;102710.78;5083382;27;45506;-83
2023/01/22 00:31:03;;;;;;;;;35.50;33.50;;;;;4.59;94.31;102699.22;5101477;27;45288;-83
2023/01/22 00:33:29;;;;;;;;;35.75;30.75;;;;;4.59;93.22;102700.09;5099573;27;46452;-82
2023/01/22 00:35:55;;;;;;;;;41.00;38.00;;;;;4.62;93.89;102707.81;5101514;27;45464;-82
2023/01/22 00:38:20;;;;;;;;;33.25;27.25;;;;;4.64;94.18;102702.47;5101444;27;45328;-82
2023/01/22 00:40:46;;;;;;;;;49.00;37.50;;;;;4.66;93.93;102704.06;5101461;27;45283;-83
2023/01/22 00:43:11;;;;;;;;;35.25;34.75;;;;;4.59;93.84;102694.81;5101354;27;46314;-83
2023/01/22 00:45:36;;;;;;;;;39.75;37.25;;;;;4.63;93.39;102698.13;5082593;27;45786;-83
2023/01/22 00:48:02;;;;;;;;;44.50;40.00;;;;;4.58;94.22;102682.56;5101813;27;45324;-82
2023/01/22 00:50:27;;;;;;;;;37.25;33.50;;;;;4.58;93.22;102687.84;5101928;27;45267;-82
2023/01/22 00:52:52;;;;;;;;;40.00;34.00;;;;;4.58;93.54;102681.72;5083348;27;47218;-82
2023/01/22 00:55:18;;;;;;;;;49.00;40.25;;;;;4.59;93.79;102667.63;5101419;27;45294;-82
2023/01/22 00:57:43;;;;;;;;;36.00;34.00;;;;;4.59;93.92;102657.09;5101479;27;45284;-84
2023/01/22 01:00:10;;;;;;;;;44.50;40.00;;;;;4.59;94.02;102660.56;5082618;27;47289;-83
2023/01/22 01:03:25;;;;;;;;;38.50;36.25;;;;;4.62;93.87;102668.31;5101100;27;46822;-82
2023/01/22 01:05:24;;;;;;;;;44.50;38.25;;;;;4.69;94.55;102679.31;5100669;27;45353;-82
2023/01/22 01:07:50;;;;;;;;;39.50;37.25;;;;;4.73;94.07;102685.28;5101110;27;45321;-83
2023/01/22 01:10:16;;;;;;;;;50.25;41.75;;;;;4.73;93.50;102696.66;5082554;27;45979;-86
2023/01/22 01:12:41;;;;;;;;;42.50;39.50;;;;;4.74;93.34;102693.09;5100500;27;46550;-83
2023/01/22 01:15:07;;;;;;;;;45.50;39.75;;;;;4.63;93.40;102691.06;5088065;27;45327;-83
2023/01/22 01:17:34;;;;;;;;;38.75;38.25;;;;;4.60;93.08;102691.25;5081781;27;45443;-84
2023/01/22 01:19:59;;;;;;;;;44.00;37.50;;;;;4.63;92.95;102700.75;5101903;27;45156;-83
2023/01/22 01:22:25;;;;;;;;;47.75;39.75;;;;;4.62;92.88;102702.56;5081875;27;47223;-83
2023/01/22 01:24:50;;;;;;;;;44.00;38.75;;;;;4.63;93.33;102701.59;5101236;27;45267;-82
2023/01/22 01:27:15;;;;;;;;;42.25;37.00;;;;;4.64;93.94;102702.47;5100864;27;45301;-82
2023/01/22 01:29:40;;;;;;;;;41.75;35.25;;;;;4.90;93.97;102698.34;5082598;27;46477;-82
2023/01/22 01:32:06;;;;;;;;;45.25;40.00;;;;;4.84;92.54;102692.56;5100323;27;46140;-82
2023/01/22 01:34:31;;;;;;;;;41.75;39.00;;;;;4.71;92.50;102689.78;5081637;27;45318;-82
2023/01/22 01:36:56;;;;;;;;;45.00;41.00;;;;;4.73;92.43;102682.66;5082638;27;45323;-82
2023/01/22 01:39:22;;;;;;;;;50.00;43.00;;;;;4.75;92.82;102675.50;5101121;27;45355;-83
2023/01/22 01:41:47;;;;;;;;;38.25;35.50;;;;;4.74;92.36;102661.50;5099831;27;45955;-83
2023/01/22 01:44:16;;;;;;;;;47.00;40.50;;;;;4.73;93.11;102659.78;5100275;27;45335;-83
2023/01/22 01:46:50;;;;;;;;;40.75;36.50;;;;;4.82;92.20;102676.00;5081215;27;45433;-83
2023/01/22 01:49:21;;;;;;;;;43.50;38.50;;;;;4.81;92.85;102675.16;5099997;27;45421;-82
2023/01/22 01:51:48;;;;;;;;;50.25;40.50;;;;;4.85;92.95;102679.28;5086747;27;47595;-83
2023/01/22 01:54:14;;;;;;;;;47.25;41.25;;;;;4.75;92.27;102663.19;5100330;27;45342;-83
2023/01/22 01:56:46;;;;;;;;;43.75;37.75;;;;;4.76;92.05;102683.31;5100392;27;45441;-83
2023/01/22 01:59:15;;;;;;;;;51.00;42.00;;;;;4.74;92.01;102679.94;5100366;27;45582;-82
2023/01/22 02:01:41;;;;;;;;;53.50;40.00;;;;;4.77;92.90;102686.81;5100528;27;45425;-83
2023/01/22 02:04:06;;;;;;;;;49.75;42.75;;;;;4.79;92.21;102685.75;5082559;27;45370;-83
2023/01/22 02:06:32;;;;;;;;;36.50;35.50;;;;;4.74;92.73;102679.94;5101288;27;45339;-84
2023/01/22 02:08:59;;;;;;;;;53.50;44.25;;;;;4.72;92.33;102687.06;5081777;27;45934;-83
2023/01/22 02:11:26;;;;;;;;;47.50;39.50;;;;;4.73;92.38;102701.09;5100787;27;46946;-82
2023/01/22 02:13:56;;;;;;;;;50.75;41.00;;;;;4.73;92.65;102691.38;5083112;27;45338;-82
2023/01/22 02:16:21;;;;;;;;;50.00;40.25;;;;;4.71;93.06;102692.41;5082660;27;45489;-83
2023/01/22 02:18:48;;;;;;;;;53.50;44.75;;;;;4.70;92.97;102682.81;5100382;27;45552;-82
2023/01/22 02:21:51;;;;;;;;;47.75;41.50;;;;;4.74;92.80;102684.34;5101741;27;46563;-83
2023/01/22 02:24:17;;;;;;;;;36.50;33.75;;;;;4.68;92.33;102675.00;5056881;28;45402;-83
2023/01/22 02:26:44;;;;;;;;;52.00;43.50;;;;;4.63;92.62;102684.94;5040127;28;45444;-83
2023/01/22 02:29:12;;;;;;;;;47.75;41.00;;;;;4.61;93.08;102677.13;5074826;27;45505;-85
2023/01/22 02:31:39;;;;;;;;;52.50;43.75;;;;;4.53;92.74;102661.78;5081315;27;47521;-82
2023/01/22 02:34:05;;;;;;;;;56.00;44.75;;;;;4.63;92.63;102693.69;5099570;27;45349;-82
2023/01/22 02:36:34;;;;;;;;;52.50;43.75;;;;;4.60;92.71;102690.38;5099130;27;45381;-83
2023/01/22 02:38:59;;;;;;;;;47.50;41.00;;;;;4.65;93.21;102699.75;5099483;27;45468;-84
2023/01/22 02:41:26;;;;;;;;;55.75;44.25;;;;;4.62;93.39;102697.28;5099026;27;45255;-84
2023/01/22 02:43:51;;;;;;;;;44.75;40.25;;;;;4.59;93.07;102697.44;5100117;27;45279;-83
2023/01/22 02:46:16;;;;;;;;;56.50;47.75;;;;;4.64;92.84;102692.75;5099554;27;45586;-84
2023/01/22 02:48:42;;;;;;;;;51.00;43.50;;;;;4.68;92.64;102696.91;5084844;27;45884;-83
2023/01/22 02:51:07;;;;;;;;;50.00;41.50;;;;;4.77;91.98;102689.44;5084577;27;47600;-83
2023/01/22 02:53:33;;;;;;;;;37.75;31.25;;;;;4.79;91.76;102684.94;5084818;27;45874;-83
2023/01/22 02:55:58;;;;;;;;;51.75;42.75;;;;;4.64;91.49;102679.59;5103122;27;45492;-83
2023/01/22 02:58:24;;;;;;;;;60.75;45.75;;;;;4.65;91.78;102678.66;5102789;27;45372;-83
2023/01/22 03:00:49;;;;;;;;;44.25;41.25;;;;;4.72;92.12;102687.06;5103212;27;45984;-84
2023/01/22 03:03:17;;;;;;;;;48.50;38.25;;;;;4.70;91.64;102674.91;5102668;27;45912;-82
2023/01/22 03:05:51;;;;;;;;;47.75;42.00;;;;;4.74;91.86;102681.69;5103218;27;45368;-83
2023/01/22 03:08:17;;;;;;;;;53.75;42.00;;;;;4.75;91.70;102670.22;5103159;27;45277;-83
2023/01/22 03:10:43;;;;;;;;;53.25;41.50;;;;;4.73;91.82;102675.56;5084854;27;47070;-83
2023/01/22 03:21:22;;;;;;;;;59.75;45.25;;;;;4.52;91.20;102656.59;5102445;27;45768;-83
2023/01/22 03:23:53;;;;;;;;;56.50;44.25;;;;;4.52;91.71;102659.22;5083864;27;45485;-83
2023/01/22 03:26:20;;;;;;;;;49.25;42.00;;;;;4.47;91.55;102662.13;5102864;27;45402;-84
2023/01/22 03:28:46;;;;;;;;;56.25;40.75;;;;;4.42;92.46;102656.25;5083490;27;46389;-84
2023/01/22 03:31:13;;;;;;;;;53.50;41.25;;;;;4.47;92.69;102669.16;5084035;27;47038;-83
2023/01/22 03:33:38;;;;;;;;;53.75;45.00;;;;;4.47;92.77;102663.91;5083926;27;45487;-85
2023/01/22 03:36:07;;;;;;;;;49.25;41.75;;;;;4.44;93.30;102657.03;5091271;27;45326;-83
2023/01/22 03:38:32;;;;;;;;;46.75;42.50;;;;;4.44;92.67;102658.81;5082775;27;47581;-83
2023/01/22 03:41:10;;;;;;;;;52.50;44.25;;;;;4.45;93.00;102663.13;5102262;27;45484;-84
2023/01/22 03:43:36;;;;;;;;;44.75;39.75;;;;;4.46;93.13;102663.03;5088666;27;45527;-83
2023/01/22 03:46:18;;;;;;;;;52.25;45.00;;;;;4.44;93.09;102664.06;5102832;27;45326;-83
2023/01/22 03:48:44;;;;;;;;;55.50;43.00;;;;;4.52;93.84;102669.75;5090871;27;45473;-83
2023/01/22 03:51:13;;;;;;;;;57.50;45.00;;;;;4.45;93.50;102655.22;5101725;27;46014;-83
2023/01/22 03:53:39;;;;;;;;;49.25;40.75;;;;;4.50;93.51;102655.81;5102493;27;45308;-83
2023/01/22 03:56:06;;;;;;;;;52.00;42.75;;;;;4.50;93.56;102666.34;5083734;27;45310;-83
2023/01/22 03:58:32;;;;;;;;;52.25;42.25;;;;;4.49;93.98;102667.31;5101033;27;45410;-83
2023/01/22 04:01:10;;;;;;;;;51.50;44.75;;;;;4.41;92.91;102660.69;5098036;27;46307;-83
2023/01/22 04:03:35;;;;;;;;;46.75;40.25;;;;;4.38;93.16;102665.25;5093266;27;45374;-84
2023/01/22 04:06:02;;;;;;;;;57.25;46.00;;;;;4.30;92.71;102665.69;5102190;27;45471;-83
2023/01/22 04:08:29;;;;;;;;;48.00;41.25;;;;;4.25;93.18;102667.75;5083518;27;47271;-83
2023/01/22 04:10:56;;;;;;;;;33.75;30.25;;;;;4.24;93.50;102669.50;5087925;27;46347;-83
2023/01/22 04:13:23;;;;;;;;;53.25;43.00;;;;;4.25;92.75;102665.09;5084724;27;45376;-83
2023/01/22 04:15:48;;;;;;;;;43.25;38.50;;;;;4.18;93.02;102659.31;5084014;27;45439;-83
2023/01/22 04:18:14;;;;;;;;;49.25;41.00;;;;;4.20;93.03;102660.09;5100911;27;46418;-84
2023/01/22 04:20:39;;;;;;;;;45.50;37.50;;;;;4.15;92.50;102664.75;5070614;27;47125;-83
2023/01/22 04:23:06;;;;;;;;;48.50;41.25;;;;;4.13;92.64;102667.47;5083681;27;45937;-83
2023/01/22 04:25:31;;;;;;;;;45.75;41.00;;;;;3.98;92.92;102636.75;5103779;27;45330;-83
2023/01/22 04:27:56;;;;;;;;;51.75;40.50;;;;;4.06;93.18;102659.97;5102774;27;45448;-82
2023/01/22 04:30:22;;;;;;;;;44.75;38.75;;;;;4.04;93.34;102660.91;5101643;27;45448;-83
2023/01/22 04:32:48;;;;;;;;;39.25;37.75;;;;;3.98;93.52;102652.53;5101895;27;45443;-83
2023/01/22 04:35:13;;;;;;;;;44.25;39.00;;;;;3.97;94.36;102649.03;5083995;27;45631;-83
2023/01/22 04:37:38;;;;;;;;;40.25;37.75;;;;;4.00;94.80;102655.91;5083303;27;46094;-81
2023/01/22 04:40:04;;;;;;;;;43.50;39.75;;;;;3.94;94.44;102646.56;5101553;27;46093;-83
2023/01/22 04:42:31;;;;;;;;;41.50;33.00;;;;;3.95;94.72;102650.88;5102671;27;45229;-83
2023/01/22 04:44:57;;;;;;;;;51.25;41.75;;;;;3.92;95.64;102645.78;5101503;27;45288;-82
2023/01/22 04:47:22;;;;;;;;;57.75;39.50;;;;;3.86;95.58;102640.88;5083078;27;46349;-83
2023/01/22 04:49:48;;;;;;;;;39.75;35.50;;;;;3.84;95.75;102640.09;5102573;27;45476;-82
2023/01/22 04:52:13;;;;;;;;;36.75;35.25;;;;;3.80;95.72;102647.31;5101992;27;45361;-83
2023/01/22 04:54:39;;;;;;;;;37.75;33.75;;;;;3.81;96.04;102643.75;5082940;27;45379;-84
2023/01/22 04:57:04;;;;;;;;;45.50;38.75;;;;;3.87;96.56;102637.31;5096676;27;46270;-83
2023/01/22 04:59:30;;;;;;;;;41.75;36.25;;;;;3.96;95.61;102633.34;5098280;27;45958;-82
2023/01/22 05:01:55;;;;;;;;;36.50;30.50;;;;;3.99;96.79;102638.44;5101376;27;45376;-83
2023/01/22 05:04:20;;;;;;;;;37.50;33.00;;;;;3.92;96.26;102611.59;5101323;27;45381;-81
2023/01/22 05:06:46;;;;;;;;;40.50;33.50;;;;;4.04;95.37;102620.59;5082633;27;46946;-82
2023/01/22 05:09:12;;;;;;;;;38.50;37.25;;;;;4.04;95.81;102616.19;5100304;27;45353;-80
2023/01/22 05:11:37;;;;;;;;;39.25;35.25;;;;;4.06;95.44;102608.22;5072536;28;45380;-83
2023/01/22 05:14:03;;;;;;;;;34.50;27.00;;;;;4.10;95.58;102606.25;5075780;28;45315;-83
2023/01/22 05:16:28;;;;;;;;;38.00;34.00;;;;;4.13;96.00;102612.19;5090654;27;45434;-82
2023/01/22 05:18:54;;;;;;;;;37.50;32.00;;;;;4.13;95.50;102604.28;5082435;27;47066;-83
2023/01/22 05:21:19;;;;;;;;;34.75;32.75;;;;;4.19;95.50;102602.28;5082245;27;46271;-83
2023/01/22 05:23:44;;;;;;;;;40.50;32.75;;;;;4.24;94.88;102606.34;5100560;27;45250;-82
2023/01/22 05:26:10;;;;;;;;;39.50;32.50;;;;;4.26;95.60;102608.88;5100735;27;45273;-82
2023/01/22 05:28:35;;;;;;;;;35.50;32.25;;;;;4.36;94.70;102586.38;5081917;27;47017;-82
2023/01/22 05:31:01;;;;;;;;;33.50;30.00;;;;;4.40;94.66;102590.50;5100693;27;45528;-83
2023/01/22 05:33:30;;;;;;;;;40.75;36.75;;;;;4.47;94.52;102598.06;5082153;27;45366;-82
2023/01/22 05:35:57;;;;;;;;;31.00;31.00;;;;;4.45;95.30;102599.94;5101111;27;45652;-81
2023/01/22 05:38:23;;;;;;;;;43.00;37.25;;;;;4.44;94.40;102596.47;5100144;27;46198;-83
2023/01/22 05:40:48;;;;;;;;;39.75;36.25;;;;;4.45;94.36;102600.78;5082077;27;45245;-82
2023/01/22 05:43:14;;;;;;;;;35.50;32.50;;;;;4.49;93.81;102604.09;5100180;27;45390;-81
2023/01/22 05:45:39;;;;;;;;;35.50;28.25;;;;;4.49;95.11;102610.19;5100312;27;45319;-82
2023/01/22 05:48:04;;;;;;;;;33.50;30.50;;;;;5.04;93.42;102599.16;5100448;27;46125;-82
2023/01/22 05:50:30;;;;;;;;;25.00;25.00;;;;;4.67;91.30;102607.47;5082164;27;45259;-81
2023/01/22 05:52:55;;;;;;;;;38.25;32.50;;;;;4.57;93.18;102595.75;5100420;27;45278;-82
2023/01/22 05:55:21;;;;;;;;;42.25;38.25;;;;;4.40;94.67;102600.22;5101421;27;45243;-82
2023/01/22 05:57:46;;;;;;;;;38.50;33.00;;;;;4.96;94.88;102601.41;5100884;27;45330;-82
2023/01/22 06:00:12;;;;;;;;;34.50;33.75;;;;;4.45;94.74;102607.81;5100414;27;45315;-82
2023/01/22 06:02:38;;;;;;;;;37.00;30.75;;;;;4.55;93.91;102612.47;5100081;27;45361;-82
2023/01/22 06:05:03;;;;;;;;;39.25;35.25;;;;;4.44;94.85;102603.50;5081535;27;46041;-80
2023/01/22 06:07:29;;;;;;;;;38.50;35.00;;;;;4.44;95.71;102606.13;5100379;27;45551;-81
2023/01/22 06:09:55;;;;;;;;;37.25;32.25;;;;;4.51;95.60;102605.69;5100152;27;45540;-81
2023/01/22 06:12:20;;;;;;;;;40.25;34.00;;;;;4.48;95.34;102605.88;5082745;27;45776;-82
2023/01/22 06:14:46;;;;;;;;;35.50;31.75;;;;;4.48;94.87;102602.38;5097371;27;45268;-82
2023/01/22 06:17:11;;;;;;;;;41.25;34.25;;;;;4.41;95.92;102597.50;5087752;27;45333;-82
2023/01/22 06:19:37;;;;;;;;;35.25;32.50;;;;;4.40;95.81;102616.84;5091816;27;45308;-82
2023/01/22 06:22:02;;;;;;;;;41.50;33.25;;;;;4.39;96.21;102609.03;5095859;27;45958;-82
2023/01/22 06:24:27;;;;;;;;;43.75;38.00;;;;;4.40;96.92;102619.47;5100638;27;45505;-82
2023/01/22 06:26:53;;;;;;;;;36.00;32.75;;;;;4.39;96.52;102619.56;5100797;27;45201;-82
2023/01/22 06:29:18;;;;;;;;;42.25;36.00;;;;;4.39;97.27;102617.78;5099406;27;45185;-82
2023/01/22 06:31:44;;;;;;;;;34.75;32.50;;;;;4.42;96.30;102624.66;5099705;27;45385;-82
2023/01/22 06:34:09;;;;;;;;;41.75;33.50;;;;;4.34;96.93;102622.44;5081272;27;45830;-83
2023/01/22 06:36:34;;;;;;;;;39.00;36.00;;;;;4.33;96.59;102625.16;5100220;27;45497;-82
2023/01/22 06:39:00;;;;;;;;;39.00;33.50;;;;;4.31;96.88;102624.44;5099508;27;45572;-82
2023/01/22 06:41:25;;;;;;;;;34.75;32.25;;;;;4.26;97.52;102620.28;5099682;27;45467;-82
2023/01/22 06:43:50;;;;;;;;;36.25;36.00;;;;;4.24;97.56;102616.88;5099421;27;45236;-81
2023/01/22 06:46:16;;;;;;;;;35.25;33.50;;;;;4.23;97.47;102624.84;5099082;27;45345;-82
2023/01/22 06:48:42;;;;;;;;;37.25;33.75;;;;;4.18;97.45;102633.00;5099533;27;45162;-82
2023/01/22 06:51:11;;;;;;;;;33.00;28.00;;;;;4.25;97.85;102629.09;5099490;27;45797;-82
2023/01/22 06:53:38;;;;;;;;;42.50;37.50;;;;;4.20;97.97;102635.53;5101985;27;45478;-83
2023/01/22 06:56:04;;;;;;;;;27.00;25.00;;;;;4.17;97.79;102637.41;5080703;27;48471;-82
2023/01/22 06:58:29;;;;;;;;;36.75;36.50;;;;;4.19;97.53;102641.75;5094439;27;45226;-82
2023/01/22 07:00:59;;;;;;;;;39.75;36.25;;;;;4.90;96.97;102636.88;5097219;27;45594;-81
2023/01/22 07:03:24;;;;;;;;;44.50;38.00;;;;;4.21;96.45;102637.22;5101876;27;45476;-82
2023/01/22 07:05:58;;;;;;;;;37.25;32.25;;;;;4.14;98.08;102652.53;5081149;27;48262;-81
2023/01/22 07:08:23;;;;;;;;;29.00;25.75;;;;;4.52;97.01;102640.81;5099519;27;45437;-82
2023/01/22 07:10:49;;;;;;;;;34.50;32.25;;;;;4.19;97.18;102632.06;5080680;27;45367;-84
2023/01/22 07:13:15;;;;;;;;;34.50;33.00;;;;;4.42;96.59;102651.84;5078003;27;46060;-83
2023/01/22 07:15:41;;;;;;;;;43.50;39.00;;;;;4.44;97.69;102658.81;5092450;27;45444;-83
2023/01/22 07:18:07;;;;;;;;;37.50;34.25;;;;;4.40;97.36;102650.25;5088182;27;45595;-83
2023/01/22 07:20:33;;;;;;;;;45.75;40.75;;;;;4.24;97.37;102640.56;5099260;27;45240;-85
2023/01/22 07:22:58;;;;;;;;;45.75;40.00;;;;;4.27;97.36;102647.44;5098967;27;45256;-82
2023/01/22 07:25:25;;;;;;;;;47.25;39.50;;;;;4.42;98.09;102646.56;5098941;27;45474;-82
2023/01/22 07:27:51;;;;;;;;;43.25;37.25;;;;;4.40;97.35;102639.72;5099100;27;46668;-83
2023/01/22 07:30:16;;;;;;;;;39.25;36.00;;;;;4.01;98.46;102644.47;5099675;27;45265;-83
2023/01/22 07:32:42;;;;;;;;;49.75;41.00;;;;;3.94;99.43;102649.19;5100171;27;45452;-82
2023/01/22 07:35:07;;;;;;;;;33.75;29.75;;;;;3.90;100.00;102650.31;5084470;27;48242;-81
2023/01/22 07:37:33;;;;;;;;;39.00;32.75;;;;;3.88;100.00;102655.66;5085994;27;45501;-82
2023/01/22 07:39:58;;;;;;;;;45.25;40.50;;;;;3.87;100.00;102658.38;5103812;27;45314;-80
2023/01/22 07:42:23;;;;;;;;;49.00;41.00;;;;;3.79;100.00;102653.50;5102750;27;45369;-82
2023/01/22 07:44:49;;;;;;;;;46.75;39.75;;;;;3.78;100.00;102657.91;5101993;27;46366;-80
2023/01/22 07:47:14;;;;;;;;;39.25;36.50;;;;;3.77;100.00;102672.00;5103549;27;45314;-82
2023/01/22 07:49:39;;;;;;;;;46.00;41.25;;;;;3.75;100.00;102679.16;5084129;27;45417;-80
2023/01/22 07:52:05;;;;;;;;;37.50;34.75;;;;;3.75;100.00;102667.75;5083708;27;46336;-82
2023/01/22 07:54:34;;;;;;;;;47.25;41.50;;;;;3.84;100.00;102674.31;5083574;27;47221;-82
2023/01/22 07:57:00;;;;;;;;;48.00;40.25;;;;;4.03;100.00;102669.75;5101803;27;45293;-83
2023/01/22 07:59:25;;;;;;;;;42.00;39.25;;;;;4.07;100.00;102675.69;5101996;27;45486;-81
2023/01/22 08:01:53;;;;;;;;;44.00;39.75;;;;;4.12;100.00;102681.56;5101646;27;45585;-85
2023/01/22 08:04:18;;;;;;;;;47.75;42.75;;;;;4.14;100.00;102678.84;5102068;27;45521;-87
2023/01/22 08:06:44;;;;;;;;;44.50;41.00;;;;;4.20;100.00;102696.94;5074155;27;45354;-86
2023/01/22 08:09:09;;;;;;;;;41.25;39.50;;;;;4.31;100.00;102695.50;5103886;27;45365;-84
2023/01/22 08:11:34;;;;;;;;;48.25;43.75;;;;;4.27;100.00;102700.94;5097231;27;45396;-88
2023/01/22 08:14:00;;;;;;;;;48.75;38.50;;;;;4.29;100.00;102701.69;5101637;27;46660;-85
2023/01/22 08:16:25;;;;;;;;;46.50;38.75;;;;;4.34;100.00;102695.34;5079542;27;45801;-87
2023/01/22 08:18:50;;;;;;;;;44.75;39.00;;;;;4.12;100.00;102700.00;5103621;27;45330;-87
2023/01/22 08:21:16;;;;;;;;;39.00;33.50;;;;;4.28;100.00;102697.38;5076330;27;45909;-85
2023/01/22 08:23:41;;;;;;;;;49.75;40.00;;;;;4.32;100.00;102691.94;5097429;27;45330;-87
2023/01/22 08:26:06;;;;;;;;;51.00;43.25;;;;;4.38;100.00;102702.13;5094973;27;45330;-85
2023/01/22 08:28:32;;;;;;;;;50.50;41.00;;;;;4.38;100.00;102694.22;5099760;27;45628;-85
2023/01/22 08:31:01;;;;;;;;;49.00;39.75;;;;;4.39;100.00;102709.94;5097157;27;45349;-85
2023/01/22 08:33:29;;;;;;;;;41.25;36.00;;;;;4.41;100.00;102707.22;5097220;27;45547;-84
2023/01/22 08:35:55;;;;;;;;;47.25;39.75;;;;;4.39;100.00;102711.72;5083542;27;45398;-85
2023/01/22 08:38:20;;;;;;;;;51.75;38.75;;;;;4.47;100.00;102725.31;5083058;27;45394;-87
2023/01/22 08:40:50;;;;;;;;;48.50;42.50;;;;;4.53;100.00;102726.75;5082665;27;45309;-86
2023/01/22 08:43:16;;;;;;;;;50.75;42.75;;;;;4.60;100.00;102725.47;5099124;27;48653;-88
2023/01/22 08:45:46;;;;;;;;;51.50;43.00;;;;;4.58;100.00;102729.97;5097672;27;45309;-89
2023/01/22 08:48:11;;;;;;;;;48.00;42.25;;;;;4.63;100.00;102738.47;5098258;27;45432;-88
2023/01/22 08:50:37;;;;;;;;;64.25;52.25;;;;;4.62;100.00;102723.63;5096216;27;45382;-90
2023/01/22 08:53:02;;;;;;;;;47.50;41.75;;;;;4.56;100.00;102721.31;5096838;27;45389;-89
2023/01/22 08:55:27;;;;;;;;;51.00;42.50;;;;;4.59;100.00;102715.88;5102779;27;45395;-90
2023/01/22 08:57:54;;;;;;;;;49.00;42.50;;;;;4.68;100.00;102723.25;5082632;27;45397;-88
2023/01/22 09:00:21;;;;;;;;;33.25;28.50;;;;;4.67;100.00;102721.56;5087412;27;45492;-88
2023/01/22 09:02:46;;;;;;;;;53.00;43.50;;;;;4.71;100.00;102734.56;5081703;27;47655;-88
2023/01/22 09:05:12;;;;;;;;;44.75;41.25;;;;;4.59;100.00;102721.16;5069333;27;45245;-85
2023/01/22 09:07:37;;;;;;;;;38.25;36.25;;;;;4.57;100.00;102720.38;5101372;27;45427;-85
2023/01/22 09:10:06;;;;;;;;;42.25;39.75;;;;;4.22;100.00;102708.22;5100892;27;45524;-86
2023/01/22 09:12:35;;;;;;;;;39.75;38.00;;;;;4.46;100.00;102699.91;5100944;27;45691;-86
2023/01/22 09:15:00;;;;;;;;;34.00;32.00;;;;;4.66;100.00;102706.69;5100532;27;45280;-87
2023/01/22 09:17:26;;;;;;;;;40.50;38.25;;;;;4.65;100.00;102726.09;5100111;27;45487;-89
2023/01/22 09:19:52;;;;;;;;;41.75;38.50;;;;;4.56;100.00;102713.44;5100637;27;45431;-87
2023/01/22 09:22:17;;;;;;;;;46.00;39.25;;;;;4.60;100.00;102719.34;5100734;27;45235;-88
2023/01/22 09:24:43;;;;;;;;;44.00;37.00;;;;;4.52;100.00;102719.81;5082600;27;45674;-89
2023/01/22 09:27:08;;;;;;;;;43.25;37.50;;;;;5.00;100.00;102719.72;5082636;27;45337;-89
2023/01/22 09:29:33;;;;;;;;;51.00;41.50;;;;;5.34;100.00;102727.47;5082732;27;46320;-88
2023/01/22 09:31:59;;;;;;;;;43.50;39.00;;;;;4.68;100.00;102728.53;5082587;27;47011;-89
2023/01/22 09:34:24;;;;;;;;;37.00;31.75;;;;;5.47;99.90;102717.03;5082218;27;45939;-88
2023/01/22 09:36:50;;;;;;;;;38.75;36.50;;;;;4.98;97.66;102720.75;5099950;27;45385;-89
2023/01/22 09:39:15;;;;;;;;;38.50;36.75;;;;;5.78;96.78;102717.81;5094966;27;45391;-86
2023/01/22 09:41:49;;;;;;;;;35.00;31.00;;;;;5.57;96.76;102730.53;5097161;27;47206;-91
2023/01/22 09:44:44;;;;;;;;;36.75;32.50;;;;;5.45;99.71;102720.72;5085909;27;45547;-89
2023/01/22 09:47:14;;;;;;;;;54.25;41.50;;;;;5.20;97.35;102740.63;5081309;27;45338;-88
2023/01/22 09:49:59;;;;;;;;;47.00;39.00;;;;;4.82;100.00;102742.69;5099195;27;45456;-87
2023/01/22 09:52:29;;;;;;;;;41.75;37.00;;;;;4.78;100.00;102731.50;5069397;27;48640;-87
2023/01/22 09:55:29;;;;;;;;;37.25;32.00;;;;;4.72;100.00;102738.88;5078378;27;45459;-89
2023/01/22 10:01:32;;;;;;;;;41.25;38.50;;;;;4.74;100.00;102727.34;5091078;27;45254;-86
2023/01/22 10:04:02;;;;;;;;;40.00;36.25;;;;;4.84;100.00;102740.84;5094919;27;45460;-85
2023/01/22 10:07:34;;;;;;;;;;;;;;;;;;;;;
2023/01/22 10:10:39;;;;;;;;;40.75;35.50;;;;;4.74;100.00;102710.69;5093043;27;69111;-90
2023/01/22 10:28:23;;;;;;;;;35.25;33.00;;;;;4.93;100.00;102721.03;4914418;28;45543;-85
2023/01/22 10:30:49;;;;;;;;;27.00;22.75;;;;;5.02;100.00;102738.09;4990091;28;45731;-87
2023/01/22 10:33:22;;;;;;;;;36.75;31.00;;;;;5.00;100.00;102740.81;5038724;28;45377;-89
2023/01/22 10:35:51;;;;;;;;;33.75;29.00;;;;;5.14;100.00;102741.81;5088464;27;45194;-86
2023/01/22 10:38:26;;;;;;;;;30.25;28.75;;;;;5.09;100.00;102735.97;5100414;27;45543;-90
2023/01/22 10:40:55;;;;;;;;;38.50;33.50;;;;;5.80;100.00;102741.47;5081408;27;47360;-88
2023/01/22 10:43:21;;;;;;;;;27.50;26.00;;;;;5.34;99.21;102742.44;5080754;27;45408;-84
2023/01/22 10:45:58;;;;;;;;;34.50;29.50;;;;;6.19;97.95;102733.84;5080900;27;45376;-85
2023/01/22 10:48:24;;;;;;;;;31.75;31.75;;;;;5.83;95.62;102733.38;5098878;27;45349;-86
2023/01/22 10:51:16;;;;;;;;;43.75;33.75;;;;;6.11;99.32;102721.13;5080888;27;46365;-85
2023/01/22 10:53:48;;;;;;;;;37.00;35.00;;;;;5.38;99.15;102723.69;5080552;27;45352;-85
2023/01/22 10:56:29;;;;;;;;;36.00;32.00;;;;;5.37;99.40;102716.75;5081290;27;45455;-84
2023/01/22 10:58:55;;;;;;;;;26.50;24.75;;;;;5.23;100.00;102722.81;5099654;27;45378;-84
2023/01/22 11:01:33;;;;;;;;;35.75;29.75;;;;;5.19;100.00;102731.84;5100409;27;46121;-85
2023/01/22 11:03:58;;;;;;;;;35.00;31.50;;;;;5.32;100.00;102728.50;5101832;27;45287;-86
2023/01/22 11:06:39;;;;;;;;;21.25;20.25;;;;;5.41;98.70;102723.53;5105309;27;45215;-86
2023/01/22 11:09:13;;;;;;;;;37.50;31.25;;;;;5.32;100.00;102739.06;5106662;27;45333;-84
2023/01/22 11:11:46;;;;;;;;;36.50;34.50;;;;;5.34;100.00;102727.47;5104699;27;46695;-84
2023/01/22 11:14:24;;;;;;;;;41.00;35.50;;;;;6.36;98.95;102730.16;5076568;27;45210;-85
2023/01/22 11:16:52;;;;;;;;;35.25;32.00;;;;;5.61;99.31;102729.41;5088755;27;45414;-82
2023/01/22 11:19:22;;;;;;;;;30.25;28.50;;;;;5.54;100.00;102728.06;5098101;27;45467;-86
2023/01/22 11:21:50;;;;;;;;;36.00;34.50;;;;;5.60;100.00;102738.25;5074889;27;47026;-88
2023/01/22 11:24:48;;;;;;;;;41.25;35.50;;;;;5.65;100.00;102730.91;5083281;27;45495;-84
2023/01/22 11:27:13;;;;;;;;;37.75;33.25;;;;;5.85;99.02;102720.94;5083774;27;45171;-85
2023/01/22 11:30:00;;;;;;;;;29.75;25.50;;;;;5.74;99.64;102711.03;5087164;27;46133;-85
2023/01/22 11:32:45;;;;;;;;;37.75;35.75;;;;;5.75;99.71;102710.06;5103285;27;45326;-85
2023/01/22 11:35:32;;;;;;;;;38.75;31.00;;;;;5.72;99.49;102704.16;5102869;27;45673;-86
2023/01/22 11:38:19;;;;;;;;;34.25;30.25;;;;;5.66;99.90;102710.66;5104127;27;45795;-83
2023/01/22 11:41:15;;;;;;;;;32.25;29.00;;;;;5.65;100.00;102714.22;5084471;27;45927;-85
2023/01/22 11:43:59;;;;;;;;;38.75;30.25;;;;;5.64;99.92;102707.25;5103977;27;45299;-84
2023/01/22 11:46:51;;;;;;;;;36.00;30.75;;;;;5.56;100.00;102705.06;5084574;27;45917;-81
2023/01/22 11:49:31;;;;;;;;;31.25;27.50;;;;;5.61;100.00;102712.72;5097597;27;45363;-82